Time;durP1;ratioP1;P1;durP2;ratioP2;P2;SDS_P1;SDS_P2;PMS_P1;PMS_P2;Temp;Humidity;BMP_temperature;BMP_pressure;BME280_temperature;BME280_humidity;BME280_pressure;Samples;Min_cycle;Max_cycle;Signal;HPM_P1;HPM_P2
2022/07/10 00:01:15;;;;;;;4.37;2.50;;;;;;;23.34;58.04;100986.25;5090062;28;20182;-62
2022/07/10 00:03:40;;;;;;;4.83;2.50;;;;;;;23.33;58.06;100989.56;5090057;28;20424;-62
2022/07/10 00:06:07;;;;;;;4.33;2.73;;;;;;;23.32;57.79;100990.75;5089932;28;20571;-62
2022/07/10 00:08:32;;;;;;;6.50;2.60;;;;;;;23.33;57.98;100989.56;5092524;28;20210;-62
2022/07/10 00:10:57;;;;;;;5.73;3.10;;;;;;;23.32;58.70;100987.88;5092656;28;20515;-62
2022/07/10 00:13:23;;;;;;;3.83;2.33;;;;;;;23.32;58.08;100988.72;5092334;28;20423;-62
2022/07/10 00:15:48;;;;;;;3.10;2.10;;;;;;;23.32;57.75;100985.84;5092109;28;20193;-62
2022/07/10 00:18:14;;;;;;;3.83;2.10;;;;;;;23.33;58.16;100981.72;5090982;28;20549;-62
2022/07/10 00:20:40;;;;;;;3.70;2.47;;;;;;;23.32;57.86;100980.06;5092980;28;20173;-62
2022/07/10 00:23:05;;;;;;;5.40;2.67;;;;;;;23.32;58.01;100982.97;5093043;28;20276;-62
2022/07/10 00:25:30;;;;;;;3.60;2.63;;;;;;;23.30;58.04;100979.66;5091947;28;20175;-62
2022/07/10 00:27:56;;;;;;;5.30;2.87;;;;;;;23.31;57.97;100975.53;5091064;28;20166;-62
2022/07/10 00:30:21;;;;;;;3.33;2.47;;;;;;;23.29;58.04;100974.28;5092790;28;20171;-62
2022/07/10 00:32:47;;;;;;;4.40;2.83;;;;;;;23.28;58.64;100970.56;5092755;28;20162;-62
2022/07/10 00:35:12;;;;;;;3.40;2.80;;;;;;;23.30;57.96;100967.28;5093383;28;20185;-62
2022/07/10 00:37:38;;;;;;;3.33;2.30;;;;;;;23.30;58.11;100962.38;5092593;28;20202;-62
2022/07/10 00:40:06;;;;;;;3.80;2.63;;;;;;;23.31;57.92;100963.19;5093691;28;20236;-62
2022/07/10 00:42:32;;;;;;;6.63;2.90;;;;;;;23.31;58.63;100958.25;5094193;28;20179;-62
2022/07/10 00:44:57;;;;;;;3.70;2.60;;;;;;;23.31;58.28;100955.38;5093813;28;20436;-62
2022/07/10 00:47:23;;;;;;;5.23;3.20;;;;;;;23.33;58.37;100949.22;5093038;28;20178;-62
2022/07/10 00:49:48;;;;;;;5.27;2.73;;;;;;;23.33;58.07;100957.88;5093780;28;20177;-62
2022/07/10 00:52:15;;;;;;;3.90;2.67;;;;;;;23.32;57.99;100962.78;5093793;28;20174;-62
2022/07/10 00:54:42;;;;;;;10.33;3.00;;;;;;;23.32;57.63;100954.16;5093603;28;20167;-62
2022/07/10 00:57:08;;;;;;;4.00;2.70;;;;;;;23.31;58.32;100952.50;5093655;28;20822;-62
2022/07/10 00:59:34;;;;;;;6.20;3.33;;;;;;;23.30;58.39;100961.53;5092502;28;20429;-62
2022/07/10 01:02:00;;;;;;;3.63;2.60;;;;;;;23.29;58.28;100957.81;5093365;28;20182;-62
2022/07/10 01:04:25;;;;;;;5.20;3.17;;;;;;;23.29;58.50;100952.03;5092094;28;20440;-62
2022/07/10 01:06:51;;;;;;;4.00;2.83;;;;;;;23.28;58.65;100959.03;5093231;28;20432;-62
2022/07/10 01:09:16;;;;;;;3.53;2.60;;;;;;;23.29;58.49;100954.13;5092919;28;20230;-62
2022/07/10 01:11:42;;;;;;;4.33;3.00;;;;;;;23.29;58.27;100954.94;5093577;28;20228;-62
2022/07/10 01:14:07;;;;;;;4.50;2.77;;;;;;;23.29;58.13;100959.88;5092080;28;20178;-62
2022/07/10 01:16:32;;;;;;;4.53;3.10;;;;;;;23.29;58.50;100966.44;5091489;28;20198;-62
2022/07/10 01:18:58;;;;;;;4.60;2.90;;;;;;;23.28;58.45;100967.69;5091036;28;20174;-62
2022/07/10 01:21:31;;;;;;;4.30;2.60;;;;;;;23.28;58.67;100969.75;5092946;28;20217;-62
2022/07/10 01:23:57;;;;;;;4.67;3.27;;;;;;;23.28;58.42;100969.75;5092358;28;20187;-62
2022/07/10 01:26:23;;;;;;;4.30;3.00;;;;;;;23.28;58.36;100964.00;5093338;28;20440;-62
2022/07/10 01:28:49;;;;;;;4.63;3.30;;;;;;;23.27;58.49;100962.31;5092847;28;20170;-62
2022/07/10 01:31:15;;;;;;;4.53;2.50;;;;;;;23.27;58.47;100963.16;5092990;28;20421;-62
2022/07/10 01:33:40;;;;;;;3.70;2.80;;;;;;;23.28;58.29;100967.69;5090814;28;20427;-62
2022/07/10 01:36:06;;;;;;;5.20;2.83;;;;;;;23.28;58.03;100967.69;5092650;28;20186;-62
2022/07/10 01:38:32;;;;;;;4.80;3.17;;;;;;;23.28;58.19;100966.88;5074780;28;20665;-62
2022/07/10 01:40:57;;;;;;;5.50;2.87;;;;;;;23.28;57.89;100975.53;5091463;28;20424;-62
2022/07/10 01:43:23;;;;;;;5.67;3.30;;;;;;;23.26;58.37;100973.03;5091138;28;20232;-62
2022/07/10 01:45:48;;;;;;;7.03;3.50;;;;;;;23.22;58.96;100977.06;5090878;28;20179;-62
2022/07/10 01:48:14;;;;;;;4.00;2.87;;;;;;;23.20;59.13;100977.50;5091016;28;20178;-62
2022/07/10 01:50:39;;;;;;;4.50;3.27;;;;;;;23.20;58.46;100983.25;5090814;28;20217;-62
2022/07/10 01:53:05;;;;;;;5.53;3.30;;;;;;;23.18;58.76;100982.00;5090894;28;20178;-62
2022/07/10 01:55:31;;;;;;;9.03;3.13;;;;;;;23.18;58.46;100984.88;5090962;28;20174;-62
2022/07/10 01:57:57;;;;;;;6.00;3.60;;;;;;;23.13;58.61;100985.22;5091176;28;20509;-62
2022/07/10 02:00:23;;;;;;;5.63;3.03;;;;;;;23.13;58.31;100980.25;5091561;28;20518;-62
2022/07/10 02:04:40;;;;;;;4.27;3.07;;;;;;;23.13;58.34;100983.13;5092183;28;20525;-62
2022/07/10 02:05:35;;;;;;;4.30;3.03;;;;;;;23.02;58.52;100985.09;5092413;28;20468;-62
2022/07/10 02:08:03;;;;;;;10.00;3.60;;;;;;;23.09;57.97;100993.78;5092404;28;20468;-62
2022/07/10 02:10:28;;;;;;;7.27;2.70;;;;;;;23.10;57.64;100995.47;5092435;28;20444;-62
2022/07/10 02:12:54;;;;;;;6.13;2.90;;;;;;;23.00;57.46;100992.47;5091932;28;20427;-62
2022/07/10 02:15:19;;;;;;;5.07;2.83;;;;;;;23.00;57.40;100989.59;5091588;28;20186;-62
2022/07/10 02:17:44;;;;;;;3.37;2.80;;;;;;;23.01;56.92;100994.94;5091613;28;20206;-62
2022/07/10 02:20:10;;;;;;;4.37;2.47;;;;;;;23.00;57.40;100993.31;5091209;28;20174;-62
2022/07/10 02:22:36;;;;;;;4.83;2.33;;;;;;;23.00;56.75;100995.34;5090731;28;20642;-62
2022/07/10 02:25:01;;;;;;;7.10;2.77;;;;;;;22.96;56.53;100997.34;5090872;28;20594;-62
2022/07/10 02:27:27;;;;;;;7.03;2.77;;;;;;;22.97;56.84;100996.16;5090431;28;20179;-62
2022/07/10 02:29:53;;;;;;;4.30;2.50;;;;;;;22.98;56.53;101001.50;5090693;28;20182;-62
2022/07/10 02:32:18;;;;;;;4.40;2.37;;;;;;;23.01;56.09;101000.72;5091164;28;20167;-62
2022/07/10 02:34:44;;;;;;;3.53;2.50;;;;;;;22.96;56.09;100998.19;5091384;28;20226;-62
2022/07/10 02:37:09;;;;;;;5.33;2.73;;;;;;;23.00;56.07;101001.94;5091746;28;20572;-62
2022/07/10 02:39:35;;;;;;;3.87;2.43;;;;;;;22.97;55.43;101002.72;5091806;28;20209;-62
2022/07/10 02:42:00;;;;;;;3.30;2.20;;;;;;;22.96;55.79;101003.94;5091738;28;20178;-62
2022/07/10 02:44:25;;;;;;;3.73;2.37;;;;;;;22.97;55.61;101011.38;5092017;28;20166;-62
2022/07/10 02:46:51;;;;;;;4.50;2.03;;;;;;;22.87;55.59;101005.50;5091406;28;20578;-62
2022/07/10 02:49:16;;;;;;;5.37;2.20;;;;;;;22.94;55.33;101002.69;5091750;28;20185;-62
2022/07/10 02:51:42;;;;;;;6.93;2.17;;;;;;;23.00;55.30;101003.97;5090984;28;20181;-62
2022/07/10 02:54:07;;;;;;;4.90;2.50;;;;;;;22.91;55.11;100994.81;5091144;28;20185;-62
2022/07/10 02:56:33;;;;;;;4.20;2.30;;;;;;;22.65;55.82;101000.69;5091409;28;20178;-62
2022/07/10 02:58:58;;;;;;;5.60;2.30;;;;;;;22.61;55.96;100996.91;5091527;28;20182;-62
2022/07/10 03:01:24;;;;;;;3.93;2.50;;;;;;;22.55;56.14;100999.34;5091981;28;20163;-62
2022/07/10 03:03:49;;;;;;;4.50;2.50;;;;;;;22.73;55.18;100985.97;5091320;28;20713;-62
2022/07/10 03:06:15;;;;;;;3.63;2.20;;;;;;;22.70;55.33;100995.41;5090697;28;20556;-62
2022/07/10 03:08:41;;;;;;;5.33;2.40;;;;;;;22.73;55.12;100993.81;5090187;28;20735;-62
2022/07/10 03:11:07;;;;;;;3.73;2.30;;;;;;;22.79;55.28;100997.97;5090994;28;20208;-62
2022/07/10 03:13:32;;;;;;;4.77;1.93;;;;;;;22.83;54.28;100999.66;5091156;28;20456;-62
2022/07/10 03:15:57;;;;;;;4.37;2.30;;;;;;;22.55;54.99;101007.97;5091304;28;20633;-62
2022/07/10 03:18:23;;;;;;;4.90;2.23;;;;;;;22.65;55.05;101004.41;5091130;28;20186;-62
2022/07/10 03:20:48;;;;;;;5.00;2.40;;;;;;;22.68;54.77;101003.59;5091367;28;20157;-62
2022/07/10 03:23:14;;;;;;;5.30;2.13;;;;;;;22.77;54.38;101007.00;5090995;28;20178;-62
2022/07/10 03:25:39;;;;;;;4.30;2.00;;;;;;;22.84;53.87;101015.75;5090384;28;20261;-62
2022/07/10 03:28:05;;;;;;;3.60;1.90;;;;;;;22.85;53.76;101008.75;5090767;28;20170;-62
2022/07/10 03:30:30;;;;;;;5.40;2.30;;;;;;;22.80;54.22;101011.16;5090451;28;20178;-62
2022/07/10 03:32:56;;;;;;;3.80;2.00;;;;;;;22.78;53.86;101020.19;5091051;28;20174;-62
2022/07/10 03:35:21;;;;;;;5.10;2.00;;;;;;;22.80;54.12;101016.91;5091013;28;20529;-62
2022/07/10 03:37:47;;;;;;;6.10;2.00;;;;;;;22.84;54.19;101017.78;5090403;28;20185;-62
2022/07/10 03:40:12;;;;;;;3.83;2.27;;;;;;;22.81;54.10;101025.16;5089954;28;20175;-62
2022/07/10 03:42:37;;;;;;;5.97;2.20;;;;;;;22.82;53.71;101021.06;5089808;28;20688;-62
2022/07/10 03:45:03;;;;;;;6.97;2.20;;;;;;;22.83;53.57;101027.66;5090264;28;20170;-62
2022/07/10 03:47:29;;;;;;;5.73;1.97;;;;;;;22.82;54.03;101017.38;5090553;28;20186;-62
2022/07/10 03:49:55;;;;;;;4.50;1.67;;;;;;;22.86;53.74;101018.22;5091147;28;20171;-62
2022/07/10 03:52:20;;;;;;;8.23;1.80;;;;;;;22.84;53.94;101015.75;5091092;28;20193;-62
2022/07/10 03:54:46;;;;;;;9.90;2.40;;;;;;;22.78;53.51;101020.19;5090476;28;20158;-62
2022/07/10 03:59:55;;;;;;;4.13;1.83;;;;;;;22.58;53.93;101015.81;5090250;28;20224;-62
2022/07/10 04:02:21;;;;;;;6.17;1.93;;;;;;;22.54;54.14;101012.06;5089985;28;20409;-62
2022/07/10 04:04:46;;;;;;;5.20;2.00;;;;;;;22.62;53.99;101022.44;5089957;28;20226;-62
2022/07/10 04:07:12;;;;;;;5.77;2.13;;;;;;;22.66;54.11;101023.31;5090397;28;20190;-62
2022/07/10 04:09:37;;;;;;;5.13;1.90;;;;;;;22.73;53.62;101023.41;5090758;28;20652;-62
2022/07/10 04:12:03;;;;;;;3.93;1.70;;;;;;;22.73;53.59;101020.53;5090732;28;20416;-62
2022/07/10 04:14:29;;;;;;;4.83;2.10;;;;;;;22.75;53.23;101023.84;5090967;28;20671;-62
2022/07/10 04:16:54;;;;;;;3.80;1.87;;;;;;;22.73;53.24;101023.41;5089738;28;20182;-62
2022/07/10 04:19:21;;;;;;;3.60;1.63;;;;;;;22.77;53.20;101026.34;5088560;28;20240;-62
2022/07/10 04:21:47;;;;;;;4.93;2.00;;;;;;;22.77;53.24;101021.41;5088700;28;20553;-62
2022/07/10 04:24:12;;;;;;;4.10;1.70;;;;;;;22.78;53.16;101025.94;5088645;28;20432;-62
2022/07/10 04:26:37;;;;;;;6.17;2.00;;;;;;;22.79;53.14;101026.78;5089337;28;20541;-62
2022/07/10 04:29:03;;;;;;;4.87;2.10;;;;;;;22.77;53.52;101030.03;5088898;28;20171;-62
2022/07/10 04:31:28;;;;;;;3.70;1.57;;;;;;;22.63;53.94;101037.69;5089612;28;20204;-62
2022/07/10 04:33:57;;;;;;;4.93;1.67;;;;;;;22.50;54.27;101031.34;5090754;28;20235;-62
2022/07/10 04:36:22;;;;;;;4.53;1.90;;;;;;;22.62;53.56;101027.38;5089755;28;20551;-62
2022/07/10 04:38:48;;;;;;;6.37;2.13;;;;;;;22.63;53.90;101032.72;5089689;28;20491;-62
2022/07/10 04:41:14;;;;;;;4.97;2.00;;;;;;;22.63;53.55;101029.03;5089793;28;20182;-62
2022/07/10 04:43:39;;;;;;;5.37;1.87;;;;;;;22.64;53.75;101024.94;5090555;28;20223;-62
2022/07/10 04:46:06;;;;;;;5.40;1.77;;;;;;;22.38;54.06;101031.53;5090140;28;20231;-62
2022/07/10 04:48:32;;;;;;;6.00;2.20;;;;;;;22.53;53.65;101027.66;5090749;28;20203;-62
2022/07/10 04:50:57;;;;;;;6.50;2.00;;;;;;;22.51;53.81;101041.63;5089834;28;20797;-62
2022/07/10 04:53:23;;;;;;;5.83;1.87;;;;;;;22.59;53.67;101034.75;5092240;28;20614;-62
2022/07/10 04:55:48;;;;;;;6.23;2.10;;;;;;;22.63;53.07;101035.59;5090733;28;20182;-62
2022/07/10 04:58:14;;;;;;;8.83;2.07;;;;;;;22.67;52.98;101033.63;5090244;28;20723;-62
2022/07/10 05:00:39;;;;;;;6.63;2.33;;;;;;;22.61;53.13;101037.22;5090524;28;20170;-62
2022/07/10 05:03:05;;;;;;;8.33;1.80;;;;;;;22.60;53.24;101032.69;5089932;28;20170;-62
2022/07/10 05:05:30;;;;;;;5.27;1.80;;;;;;;22.65;52.88;101024.56;5090042;28;21892;-62
2022/07/10 05:07:56;;;;;;;7.60;1.80;;;;;;;22.60;52.91;101029.81;5091717;28;20214;-62
2022/07/10 05:10:21;;;;;;;7.10;2.33;;;;;;;22.63;53.21;101034.78;5093402;28;20159;-62
2022/07/10 05:12:47;;;;;;;5.43;1.73;;;;;;;22.49;53.40;101035.44;5092847;28;20227;-62
2022/07/10 05:15:12;;;;;;;3.73;1.40;;;;;;;22.48;53.75;101044.47;5092773;28;20579;-62
2022/07/10 05:17:38;;;;;;;5.20;2.07;;;;;;;22.25;53.79;101046.53;5093764;28;20195;-62
2022/07/10 05:20:04;;;;;;;3.20;1.60;;;;;;;22.29;53.89;101050.31;5093203;28;20609;-62
2022/07/10 05:22:30;;;;;;;5.60;2.07;;;;;;;22.37;53.34;101054.97;5093397;28;20193;-62
2022/07/10 05:24:56;;;;;;;3.77;1.63;;;;;;;22.41;53.10;101052.94;5093035;28;20178;-62
2022/07/10 05:27:21;;;;;;;3.50;1.60;;;;;;;22.44;53.04;101050.16;5093597;28;20772;-62
2022/07/10 05:29:47;;;;;;;5.40;1.70;;;;;;;22.01;53.90;101056.44;5092301;28;20266;-62
2022/07/10 05:32:12;;;;;;;5.80;1.60;;;;;;;22.08;53.96;101050.00;5093110;28;20171;-62
2022/07/10 05:34:38;;;;;;;3.57;1.57;;;;;;;22.23;53.39;101049.81;5092274;28;20643;-62
2022/07/10 05:37:03;;;;;;;4.97;1.83;;;;;;;22.25;52.99;101052.31;5092556;28;20197;-62
2022/07/10 05:39:29;;;;;;;4.57;1.70;;;;;;;22.41;52.70;101053.78;5093135;28;20261;-62
2022/07/10 05:41:55;;;;;;;4.83;1.60;;;;;;;22.51;52.37;101055.16;5093363;28;20185;-62
2022/07/10 05:44:21;;;;;;;4.93;1.50;;;;;;;22.33;52.89;101057.75;5093148;28;20197;-62
2022/07/10 05:46:46;;;;;;;4.77;1.87;;;;;;;22.27;52.97;101065.06;5092216;28;20420;-62
2022/07/10 05:49:12;;;;;;;4.60;1.60;;;;;;;22.19;52.92;101063.31;5091669;28;20201;-62
2022/07/10 05:51:37;;;;;;;6.53;1.50;;;;;;;22.14;53.10;101057.06;5092221;28;20179;-62
2022/07/10 05:54:03;;;;;;;3.90;1.50;;;;;;;22.34;53.06;101053.69;5092770;28;20186;-62
2022/07/10 05:56:29;;;;;;;4.00;1.67;;;;;;;22.43;52.55;101059.16;5092652;28;20296;-62
2022/07/10 05:58:55;;;;;;;5.50;1.30;;;;;;;22.46;52.62;101064.16;5092582;28;20202;-62
2022/07/10 06:01:21;;;;;;;3.90;1.47;;;;;;;22.52;52.73;101056.84;5092651;28;20202;-62
2022/07/10 06:03:47;;;;;;;6.93;2.00;;;;;;;22.45;53.08;101068.25;5091810;28;20788;-62
2022/07/10 06:06:15;;;;;;;4.53;1.67;;;;;;;22.36;52.60;101056.16;5091025;28;20486;-62
2022/07/10 06:08:41;;;;;;;7.43;1.50;;;;;;;22.16;53.53;101063.25;5091903;28;20226;-62
2022/07/10 06:11:06;;;;;;;6.70;2.00;;;;;;;22.31;53.14;101068.84;5092070;28;20933;-62
2022/07/10 06:13:31;;;;;;;3.20;1.47;;;;;;;22.41;52.94;101078.84;5092455;28;20182;-62
2022/07/10 06:15:57;;;;;;;7.83;1.93;;;;;;;22.44;52.42;101076.06;5092216;28;20194;-62
2022/07/10 06:18:22;;;;;;;6.33;1.83;;;;;;;22.34;52.67;101079.59;5092059;28;20237;-62
2022/07/10 06:20:49;;;;;;;3.60;1.50;;;;;;;22.40;52.97;101082.94;5091997;28;20202;-62
2022/07/10 06:23:14;;;;;;;4.03;1.53;;;;;;;22.36;52.70;101090.69;5091552;28;20481;-62
2022/07/10 06:25:40;;;;;;;4.87;2.10;;;;;;;22.20;53.42;101090.88;5091477;28;20394;-62
2022/07/10 06:28:05;;;;;;;8.30;1.53;;;;;;;22.29;52.67;101090.59;5091795;28;20632;-62
2022/07/10 06:30:30;;;;;;;6.97;1.83;;;;;;;22.11;53.06;101092.34;5092154;28;20182;-62
2022/07/10 06:32:56;;;;;;;4.87;1.60;;;;;;;22.18;52.96;101098.22;5092138;28;20185;-62
2022/07/10 06:35:21;;;;;;;4.70;1.60;;;;;;;22.04;52.76;101093.06;5091972;28;20193;-62
2022/07/10 06:37:47;;;;;;;5.37;1.77;;;;;;;22.20;53.02;101101.53;5091792;28;20228;-62
2022/07/10 06:40:13;;;;;;;3.77;1.70;;;;;;;22.15;52.86;101098.97;5092005;28;20182;-62
2022/07/10 06:42:39;;;;;;;6.43;1.77;;;;;;;22.17;53.08;101102.31;5090918;28;20171;-62
2022/07/10 06:45:05;;;;;;;6.97;1.80;;;;;;;22.20;52.31;101099.50;5091338;28;20864;-62
2022/07/10 06:50:32;;;;;;;4.70;1.43;;;;;;;22.28;52.12;101107.00;5068879;28;20441;-61
2022/07/10 06:53:01;;;;;;;2.87;1.50;;;;;;;22.36;51.62;101108.78;5086368;28;20942;-61
2022/07/10 06:55:26;;;;;;;6.50;1.63;;;;;;;22.22;52.25;101108.56;5091630;28;20183;-61
2022/07/10 06:57:52;;;;;;;3.63;1.50;;;;;;;22.03;53.27;101094.25;5090214;28;20554;-61
2022/07/10 07:00:17;;;;;;;7.40;1.73;;;;;;;22.02;53.01;101104.13;5090831;28;20206;-61
2022/07/10 07:02:43;;;;;;;6.20;2.00;;;;;;;22.01;52.69;101099.59;5090864;28;20167;-61
2022/07/10 07:05:08;;;;;;;4.93;1.60;;;;;;;22.10;52.75;101088.66;5091292;28;20233;-61
2022/07/10 07:07:35;;;;;;;4.53;1.53;;;;;;;22.11;53.32;101092.34;5091086;28;20407;-61
2022/07/10 07:10:01;;;;;;;5.73;2.00;;;;;;;22.19;52.45;101099.88;5091397;28;20261;-61
2022/07/10 07:12:26;;;;;;;2.87;1.40;;;;;;;22.18;53.06;101106.84;5091200;28;20393;-61
2022/07/10 07:14:51;;;;;;;6.50;1.90;;;;;;;22.30;52.85;101109.50;5090780;28;20171;-61
2022/07/10 07:17:33;;;;;;;6.30;2.30;;;;;;;22.13;53.44;101110.06;5090280;28;20198;-61
2022/07/10 07:25:28;;;;;;;8.90;1.90;;;;;;;22.37;52.20;101098.94;5090708;28;20434;-61
2022/07/10 07:27:54;;;;;;;4.30;1.40;;;;;;;22.36;52.64;101108.78;5090984;28;20425;-61
2022/07/10 07:30:19;;;;;;;4.63;1.50;;;;;;;22.48;52.29;101108.59;5090758;28;20243;-61
2022/07/10 07:32:45;;;;;;;4.57;1.80;;;;;;;22.32;52.63;101110.78;5090467;28;20174;-61
2022/07/10 07:35:11;;;;;;;4.00;1.80;;;;;;;22.18;53.13;101107.66;5090384;28;20655;-62
2022/07/10 07:37:47;;;;;;;4.57;2.03;;;;;;;22.17;52.61;101110.94;5090304;28;20613;-62
2022/07/10 07:40:22;;;;;;;5.47;1.90;;;;;;;22.21;52.80;101117.56;5090474;28;20420;-62
2022/07/10 07:42:47;;;;;;;9.23;1.97;;;;;;;22.09;52.18;101101.38;5090957;28;20412;-62
2022/07/10 07:45:13;;;;;;;5.83;1.67;;;;;;;22.19;52.76;101106.47;5090738;28;20470;-62
2022/07/10 07:47:57;;;;;;;3.50;1.63;;;;;;;22.20;51.80;101107.28;5090808;28;20228;-62
2022/07/10 07:50:25;;;;;;;7.13;1.93;;;;;;;22.25;51.97;101109.84;5091108;28;20533;-62
2022/07/10 07:52:51;;;;;;;11.73;2.00;;;;;;;22.30;51.82;101112.38;5090111;28;20423;-62
2022/07/10 07:55:17;;;;;;;5.73;1.63;;;;;;;22.19;51.64;101106.47;5090841;28;20405;-62
2022/07/10 07:57:42;;;;;;;5.53;2.40;;;;;;;22.03;52.14;101108.66;5090378;28;20525;-62
2022/07/10 08:00:09;;;;;;;5.20;1.47;;;;;;;22.14;51.78;101098.16;5090482;28;20463;-62
2022/07/10 08:02:35;;;;;;;4.07;1.40;;;;;;;22.19;52.17;101105.63;5090658;28;20253;-62
2022/07/10 08:05:00;;;;;;;6.13;1.77;;;;;;;22.34;51.79;101104.63;5090745;28;20926;-62
2022/07/10 08:07:39;;;;;;;5.83;1.60;;;;;;;22.17;51.82;101102.31;5090694;28;20425;-62
2022/07/10 08:10:05;;;;;;;4.90;1.77;;;;;;;22.29;51.23;101102.09;5090320;28;20168;-62
2022/07/10 08:12:31;;;;;;;2.80;1.20;;;;;;;22.28;51.30;101104.13;5088902;28;20442;-62
2022/07/10 08:14:57;;;;;;;8.40;2.03;;;;;;;22.08;51.49;101102.56;5088892;28;20415;-62
2022/07/10 08:17:23;;;;;;;7.20;2.07;;;;;;;22.24;50.97;101109.03;5088999;28;20548;-62
2022/07/10 08:19:49;;;;;;;8.57;2.10;;;;;;;22.34;51.34;101105.47;5089256;28;20480;-62
2022/07/10 08:22:15;;;;;;;3.80;1.43;;;;;;;22.31;51.37;101105.41;5090436;28;20732;-62
2022/07/10 08:24:40;;;;;;;3.17;1.43;;;;;;;22.36;50.92;101100.16;5090593;28;20167;-62
2022/07/10 08:27:09;;;;;;;4.83;1.70;;;;;;;22.36;50.80;101107.94;5091513;28;20223;-62
2022/07/10 08:29:34;;;;;;;4.60;1.53;;;;;;;22.35;50.60;101103.41;5094450;28;20175;-62
2022/07/10 08:32:00;;;;;;;2.63;1.50;;;;;;;22.30;50.96;101113.22;5093788;28;20416;-62
2022/07/10 08:34:26;;;;;;;3.60;1.67;;;;;;;22.35;49.77;101112.03;5093978;28;20657;-62
2022/07/10 08:36:51;;;;;;;7.07;1.97;;;;;;;22.22;50.69;101110.63;5094098;28;20178;-62
2022/07/10 08:39:20;;;;;;;4.30;1.37;;;;;;;22.21;50.60;101098.28;5093520;28;20918;-62
2022/07/10 08:41:52;;;;;;;3.23;1.60;;;;;;;22.21;50.17;101111.81;5094333;28;20166;-62
2022/07/10 08:44:17;;;;;;;7.70;1.90;;;;;;;22.14;50.72;101108.84;5094140;28;20507;-62
2022/07/10 08:46:43;;;;;;;5.93;1.47;;;;;;;22.18;50.57;101104.78;5094297;28;20857;-62
2022/07/10 08:49:15;;;;;;;5.30;1.80;;;;;;;22.21;49.96;101106.91;5093790;28;20576;-62
2022/07/10 08:51:41;;;;;;;3.70;1.27;;;;;;;22.19;49.81;101088.38;5093852;28;20445;-62
2022/07/10 08:54:07;;;;;;;4.20;1.60;;;;;;;22.19;50.25;101086.34;5092756;28;20412;-62
2022/07/10 08:56:33;;;;;;;4.27;1.70;;;;;;;22.20;49.62;101090.03;5092475;28;20185;-62
2022/07/10 08:58:58;;;;;;;4.33;1.30;;;;;;;22.31;49.42;101091.84;5090539;28;20195;-62
2022/07/10 09:01:24;;;;;;;6.03;2.00;;;;;;;22.24;49.65;101096.66;5091458;28;20210;-62
2022/07/10 09:03:50;;;;;;;4.83;1.50;;;;;;;22.36;49.90;101088.66;5091995;28;20181;-62
2022/07/10 09:06:16;;;;;;;6.80;1.93;;;;;;;22.33;49.71;101088.59;5091859;28;20198;-62
2022/07/10 09:09:00;;;;;;;6.47;1.57;;;;;;;22.39;49.71;101089.91;5091307;28;20793;-62
2022/07/10 09:11:28;;;;;;;5.80;1.77;;;;;;;22.39;49.46;101090.75;5091979;28;20481;-62
2022/07/10 09:13:55;;;;;;;4.60;1.47;;;;;;;22.39;49.74;101098.56;5092137;28;20752;-61
2022/07/10 09:16:29;;;;;;;4.53;1.70;;;;;;;22.41;49.37;101098.97;5092035;28;20503;-61
2022/07/10 09:18:55;;;;;;;5.33;1.70;;;;;;;22.45;49.45;101097.03;5093253;28;20866;-61
2022/07/10 09:21:21;;;;;;;5.83;1.80;;;;;;;22.40;49.33;101089.53;5091694;28;20507;-62
2022/07/10 09:23:47;;;;;;;6.47;1.60;;;;;;;22.30;48.63;101090.22;5093777;28;20197;-62
2022/07/10 09:26:12;;;;;;;5.57;1.83;;;;;;;22.41;48.81;101101.84;5089989;28;20412;-62
2022/07/10 09:28:37;;;;;;;9.20;1.73;;;;;;;22.50;48.72;101090.94;5091119;28;20502;-62
2022/07/10 09:31:03;;;;;;;6.83;1.70;;;;;;;22.49;48.08;101098.75;5089286;28;20200;-62
2022/07/10 09:33:30;;;;;;;5.03;1.40;;;;;;;22.49;48.16;101098.75;5089325;28;20174;-62
2022/07/10 09:36:08;;;;;;;8.30;1.70;;;;;;;22.46;48.75;101098.69;5088500;28;20434;-62
2022/07/10 09:38:42;;;;;;;3.43;1.50;;;;;;;22.50;48.74;101097.53;5088168;28;20509;-62
2022/07/10 09:41:23;;;;;;;5.80;1.50;;;;;;;22.47;48.29;101095.41;5092382;28;20474;-61
2022/07/10 09:44:04;;;;;;;5.30;1.47;;;;;;;22.57;48.42;101091.88;5092060;28;20400;-61
2022/07/10 09:46:37;;;;;;;4.70;1.67;;;;;;;22.42;47.35;101092.84;5090867;28;20880;-61
2022/07/10 09:49:10;;;;;;;3.10;1.20;;;;;;;22.22;46.59;101094.19;5091323;28;20401;-61
2022/07/10 09:51:45;;;;;;;4.13;1.37;;;;;;;22.41;47.76;101078.84;5091436;28;20408;-61
2022/07/10 09:54:11;;;;;;;4.07;1.63;;;;;;;22.27;48.10;101090.16;5090861;28;20408;-61
2022/07/10 09:56:46;;;;;;;4.17;1.43;;;;;;;22.30;47.57;101093.09;5090980;28;20448;-61
2022/07/10 09:59:13;;;;;;;4.90;1.57;;;;;;;22.40;47.59;101095.28;5091236;28;20755;-61
2022/07/10 10:01:42;;;;;;;3.63;1.20;;;;;;;22.42;47.25;101092.84;5091246;28;20408;-61
2022/07/10 10:04:08;;;;;;;4.37;1.40;;;;;;;22.44;47.31;101081.81;5090904;28;20416;-61
2022/07/10 10:06:33;;;;;;;4.43;1.33;;;;;;;22.37;46.90;101087.44;5090602;28;20436;-61
2022/07/10 10:09:10;;;;;;;4.63;1.67;;;;;;;22.47;47.13;101086.78;5090262;28;20707;-61
2022/07/10 10:11:36;;;;;;;6.20;1.47;;;;;;;22.55;46.93;101077.03;5089173;28;20182;-62
2022/07/10 10:14:02;;;;;;;5.00;1.70;;;;;;;22.53;47.11;101079.47;5089627;28;20412;-62
2022/07/10 10:16:27;;;;;;;6.03;1.60;;;;;;;22.48;47.25;101081.88;5092515;28;20489;-62
2022/07/10 10:21:37;;;;;;;4.37;1.50;;;;;;;22.54;46.98;101069.63;5091917;28;20181;-62
2022/07/10 10:24:03;;;;;;;3.70;1.50;;;;;;;22.50;47.14;101068.75;5091914;28;20412;-62
2022/07/10 10:26:28;;;;;;;4.83;1.70;;;;;;;22.54;46.86;101072.50;5091776;28;20174;-62
2022/07/10 10:28:57;;;;;;;3.30;1.33;;;;;;;22.54;46.11;101068.78;5091659;28;20211;-62
2022/07/10 10:31:23;;;;;;;4.33;1.50;;;;;;;22.54;46.76;101065.91;5090863;28;20173;-62
2022/07/10 10:33:51;;;;;;;5.50;1.43;;;;;;;22.44;47.01;101063.69;5073296;28;20773;-62
2022/07/10 10:36:35;;;;;;;2.83;1.20;;;;;;;22.51;46.41;101064.66;5092292;28;20174;-62
2022/07/10 10:39:02;;;;;;;3.27;1.70;;;;;;;22.48;46.10;101062.53;5091799;28;20460;-62
2022/07/10 10:41:36;;;;;;;5.30;1.17;;;;;;;22.48;45.88;101073.25;5091559;28;20490;-62
2022/07/10 10:44:16;;;;;;;4.33;1.30;;;;;;;22.57;45.89;101054.44;5091441;28;20929;-62
2022/07/10 10:46:54;;;;;;;5.67;1.40;;;;;;;22.55;44.97;101064.69;5091836;28;20470;-62
2022/07/10 10:49:25;;;;;;;6.10;1.20;;;;;;;22.55;45.02;101062.66;5090939;28;20412;-62
2022/07/10 10:52:04;;;;;;;3.50;1.63;;;;;;;22.53;44.50;101062.19;5091693;28;20401;-62
2022/07/10 10:54:31;;;;;;;3.10;1.27;;;;;;;22.58;44.75;101061.84;5091631;28;20440;-62
2022/07/10 10:57:16;;;;;;;7.33;1.47;;;;;;;22.68;45.55;101052.53;5091555;28;20974;-62
2022/07/10 10:59:45;;;;;;;2.90;1.40;;;;;;;22.68;45.33;101060.38;5091323;28;20442;-62
2022/07/10 11:02:26;;;;;;;5.13;1.20;;;;;;;22.56;45.42;101055.66;5091083;28;20465;-62
2022/07/10 11:05:22;;;;;;;3.90;1.10;;;;;;;22.49;45.10;101052.72;5091404;28;20434;-62
2022/07/10 11:07:53;;;;;;;4.57;1.37;;;;;;;22.55;44.48;101056.91;5091108;28;20456;-62
2022/07/10 11:10:37;;;;;;;7.67;1.60;;;;;;;22.57;44.51;101047.88;5091362;28;20439;-62
2022/07/10 11:13:10;;;;;;;4.10;1.40;;;;;;;22.60;45.09;101042.16;5091480;28;20514;-62
2022/07/10 11:15:43;;;;;;;2.63;1.00;;;;;;;22.67;44.84;101042.25;5090986;28;20554;-62
2022/07/10 11:18:15;;;;;;;3.73;1.23;;;;;;;22.68;44.84;101040.22;5091334;28;20480;-62
2022/07/10 11:20:49;;;;;;;4.00;1.30;;;;;;;22.71;44.99;101037.38;5090195;28;20503;-62
2022/07/10 11:23:41;;;;;;;4.40;1.60;;;;;;;22.68;44.68;101041.03;5088426;28;20417;-62
2022/07/10 11:26:08;;;;;;;3.20;1.00;;;;;;;22.65;43.96;101041.81;5069184;28;20425;-62
2022/07/10 11:28:48;;;;;;;3.20;1.07;;;;;;;22.74;45.21;101039.47;5090306;28;20416;-62
2022/07/10 11:31:14;;;;;;;7.00;1.07;;;;;;;22.74;44.17;101036.59;5090706;28;20967;-62
2022/07/10 11:33:44;;;;;;;3.40;1.33;;;;;;;22.81;44.53;101036.69;5089503;28;20424;-62
2022/07/10 11:36:14;;;;;;;4.07;1.23;;;;;;;22.77;44.99;101043.63;5090787;28;20178;-62
2022/07/10 11:38:41;;;;;;;3.90;1.13;;;;;;;22.75;44.28;101032.50;5090467;28;20450;-62